Time;durP1;ratioP1;P1;durP2;ratioP2;P2;SDS_P1;SDS_P2;PMS_P1;PMS_P2;Temp;Humidity;BMP_temperature;BMP_pressure;BME280_temperature;BME280_humidity;BME280_pressure;Samples;Min_cycle;Max_cycle;Signal;HPM_P1;HPM_P2
2023/07/20 00:02:07;;;;;;;14.02;8.07;;;;;;;;;;5088263;28;20643;-68
2023/07/20 00:04:34;;;;;;;3.15;2.35;;;;;;;;;;5087554;28;20202;-69
2023/07/20 00:07:01;;;;;;;8.43;2.72;;;;;;;;;;5088974;28;20200;-69
2023/07/20 00:09:29;;;;;;;5.97;3.25;;;;;;;;;;5088425;28;20197;-68
2023/07/20 00:11:55;;;;;;;11.20;5.05;;;;;;;;;;5088359;28;20209;-68
2023/07/20 00:14:22;;;;;;;6.63;3.15;;;;;;;;;;5088768;28;20205;-68
2023/07/20 00:16:55;;;;;;;4.95;2.50;;;;;;;;;;5087426;28;20193;-68
2023/07/20 00:19:22;;;;;;;10.10;3.38;;;;;;;;;;5087221;28;20293;-69
2023/07/20 00:21:48;;;;;;;6.50;3.45;;;;;;;;;;5088842;28;20197;-70
2023/07/20 00:24:15;;;;;;;6.38;3.17;;;;;;;;;;5088342;28;20210;-69
2023/07/20 00:26:43;;;;;;;4.80;3.03;;;;;;;;;;5087950;28;20665;-70
2023/07/20 00:29:10;;;;;;;9.27;2.80;;;;;;;;;;5087649;28;20206;-69
2023/07/20 00:31:37;;;;;;;8.75;4.35;;;;;;;;;;5088401;28;20566;-69
2023/07/20 00:34:03;;;;;;;7.20;4.38;;;;;;;;;;5088522;28;20663;-68
2023/07/20 00:36:30;;;;;;;11.48;4.78;;;;;;;;;;5087653;28;20743;-68
2023/07/20 00:38:56;;;;;;;11.68;5.22;;;;;;;;;;5086434;28;20229;-69
2023/07/20 00:41:22;;;;;;;7.18;4.72;;;;;;;;;;5087483;28;20212;-69
2023/07/20 00:43:50;;;;;;;11.30;4.30;;;;;;;;;;5087959;28;20212;-68
2023/07/20 00:46:17;;;;;;;10.48;2.88;;;;;;;;;;5088063;28;20289;-68
2023/07/20 00:48:43;;;;;;;6.28;3.33;;;;;;;;;;5087437;28;20202;-68
2023/07/20 00:51:13;;;;;;;4.78;2.67;;;;;;;;;;5088307;28;20201;-67
2023/07/20 00:53:40;;;;;;;3.55;2.67;;;;;;;;;;5087704;28;20297;-68
2023/07/20 00:56:07;;;;;;;6.95;2.50;;;;;;;;;;5087829;28;20678;-67
2023/07/20 00:58:34;;;;;;;6.82;3.20;;;;;;;;;;5087347;28;20302;-68
2023/07/20 01:01:02;;;;;;;5.72;2.72;;;;;;;;;;5086363;28;20197;-68
2023/07/20 01:03:28;;;;;;;6.60;2.70;;;;;;;;;;5085306;28;20636;-68
2023/07/20 01:05:56;;;;;;;8.32;2.80;;;;;;;;;;5085858;28;20266;-68
2023/07/20 01:08:25;;;;;;;8.93;3.65;;;;;;;;;;5085685;28;20284;-68
2023/07/20 01:10:54;;;;;;;9.13;3.03;;;;;;;;;;5085428;28;20206;-68
2023/07/20 01:13:22;;;;;;;11.52;3.42;;;;;;;;;;5084789;28;20198;-69
2023/07/20 01:15:50;;;;;;;5.10;2.53;;;;;;;;;;5085998;28;20201;-69
2023/07/20 01:18:18;;;;;;;6.05;2.90;;;;;;;;;;5087179;28;20225;-68
2023/07/20 01:20:45;;;;;;;6.20;2.70;;;;;;;;;;5086835;28;20595;-70
2023/07/20 01:23:23;;;;;;;4.00;2.63;;;;;;;;;;5085599;28;20757;-68
2023/07/20 01:26:01;;;;;;;7.35;3.08;;;;;;;;;;5086085;28;20233;-68
2023/07/20 01:28:55;;;;;;;22.88;14.88;;;;;;;;;;5087287;28;20227;-68
2023/07/20 01:31:25;;;;;;;7.70;5.15;;;;;;;;;;5069870;28;20273;-68
2023/07/20 01:33:53;;;;;;;6.40;2.72;;;;;;;;;;5090356;28;20201;-68
2023/07/20 01:36:20;;;;;;;5.18;3.22;;;;;;;;;;5089986;28;20193;-66
2023/07/20 01:38:47;;;;;;;3.55;2.33;;;;;;;;;;5090446;28;20745;-67
2023/07/20 01:41:13;;;;;;;9.60;3.17;;;;;;;;;;5089549;28;20255;-68
2023/07/20 01:43:40;;;;;;;7.53;2.53;;;;;;;;;;5090554;28;20209;-69
2023/07/20 01:46:07;;;;;;;4.65;2.78;;;;;;;;;;5089693;28;20731;-68
2023/07/20 01:48:34;;;;;;;6.22;2.75;;;;;;;;;;5090352;28;20323;-68
2023/07/20 01:51:01;;;;;;;7.28;2.72;;;;;;;;;;5091209;28;20208;-70
2023/07/20 01:53:27;;;;;;;5.07;3.28;;;;;;;;;;5091317;28;20209;-68
2023/07/20 01:55:54;;;;;;;3.78;2.63;;;;;;;;;;5090240;28;20209;-68
2023/07/20 01:58:20;;;;;;;4.90;2.90;;;;;;;;;;5090669;28;20224;-68
2023/07/20 02:00:47;;;;;;;7.45;2.75;;;;;;;;;;5089268;28;20688;-69
2023/07/20 02:03:13;;;;;;;4.60;2.50;;;;;;;;;;5090233;28;20213;-68
2023/07/20 02:05:42;;;;;;;8.00;2.92;;;;;;;;;;5090998;28;20267;-67
2023/07/20 02:08:09;;;;;;;8.18;3.45;;;;;;;;;;5090172;28;20683;-68
2023/07/20 02:10:35;;;;;;;5.90;3.00;;;;;;;;;;5091086;28;20210;-68
2023/07/20 02:13:02;;;;;;;8.00;2.95;;;;;;;;;;5090630;28;21107;-68
2023/07/20 02:15:28;;;;;;;8.40;3.35;;;;;;;;;;5090409;28;20632;-68
2023/07/20 02:17:55;;;;;;;8.43;4.07;;;;;;;;;;5089798;28;20217;-67
2023/07/20 02:20:21;;;;;;;13.02;4.57;;;;;;;;;;5089524;28;20225;-68
2023/07/20 02:22:49;;;;;;;10.18;4.90;;;;;;;;;;5090521;28;20210;-66
2023/07/20 02:25:16;;;;;;;7.95;4.20;;;;;;;;;;5090197;28;20225;-68
2023/07/20 02:27:42;;;;;;;16.83;5.45;;;;;;;;;;5090169;28;20776;-67
2023/07/20 02:30:10;;;;;;;10.25;3.80;;;;;;;;;;5088485;28;20201;-68
2023/07/20 02:32:37;;;;;;;10.20;3.13;;;;;;;;;;5089972;28;20285;-68
2023/07/20 02:35:04;;;;;;;13.68;9.30;;;;;;;;;;5090217;28;20348;-67
2023/07/20 02:37:31;;;;;;;7.22;4.07;;;;;;;;;;5089070;28;20288;-67
2023/07/20 02:39:58;;;;;;;10.85;4.13;;;;;;;;;;5089890;28;20812;-69
2023/07/20 02:42:25;;;;;;;6.47;3.70;;;;;;;;;;5088229;28;20202;-66
2023/07/20 02:44:52;;;;;;;6.45;3.08;;;;;;;;;;5089500;28;20705;-68
2023/07/20 02:47:18;;;;;;;5.47;3.78;;;;;;;;;;5089714;28;20206;-68
2023/07/20 02:49:45;;;;;;;5.63;2.83;;;;;;;;;;5089539;28;20210;-68
2023/07/20 02:52:11;;;;;;;8.60;3.47;;;;;;;;;;5088336;28;20245;-67
2023/07/20 02:54:38;;;;;;;7.15;2.92;;;;;;;;;;5089926;28;20582;-68
2023/07/20 02:57:06;;;;;;;9.80;3.10;;;;;;;;;;5089989;28;20729;-70
2023/07/20 02:59:33;;;;;;;14.93;4.63;;;;;;;;;;5088288;28;20224;-71
2023/07/20 03:01:59;;;;;;;13.70;7.15;;;;;;;;;;5088373;28;20198;-69
2023/07/20 03:04:27;;;;;;;6.28;4.55;;;;;;;;;;5090729;28;20190;-70
2023/07/20 03:06:53;;;;;;;7.18;5.40;;;;;;;;;;5087900;28;20748;-70
2023/07/20 03:09:19;;;;;;;10.38;4.40;;;;;;;;;;5090483;28;20237;-70
2023/07/20 03:11:46;;;;;;;11.85;4.60;;;;;;;;;;5090096;28;20230;-69
2023/07/20 03:14:14;;;;;;;9.32;3.92;;;;;;;;;;5089494;28;20205;-67
2023/07/20 03:16:40;;;;;;;9.27;4.05;;;;;;;;;;5088687;28;20190;-68
2023/07/20 03:19:07;;;;;;;6.30;3.75;;;;;;;;;;5089774;28;20282;-68
2023/07/20 03:21:33;;;;;;;14.63;4.10;;;;;;;;;;5088318;28;20624;-69
2023/07/20 03:23:59;;;;;;;14.55;4.68;;;;;;;;;;5088203;28;20229;-68
2023/07/20 03:26:26;;;;;;;7.15;3.55;;;;;;;;;;5087125;28;20202;-68
2023/07/20 03:28:52;;;;;;;13.80;4.32;;;;;;;;;;5088594;28;20290;-68
2023/07/20 03:31:20;;;;;;;8.38;3.08;;;;;;;;;;5085602;28;20225;-68
2023/07/20 03:33:46;;;;;;;10.20;3.80;;;;;;;;;;5088074;28;20225;-68
2023/07/20 03:36:13;;;;;;;10.05;4.25;;;;;;;;;;5089253;28;20206;-68
2023/07/20 03:38:40;;;;;;;7.38;3.53;;;;;;;;;;5089247;28;20283;-65
2023/07/20 03:41:06;;;;;;;10.82;3.58;;;;;;;;;;5088848;28;20226;-66
2023/07/20 03:43:33;;;;;;;9.32;4.13;;;;;;;;;;5089605;28;20254;-65
2023/07/20 03:45:59;;;;;;;10.68;6.00;;;;;;;;;;5088802;28;20286;-66
2023/07/20 03:48:27;;;;;;;15.65;5.43;;;;;;;;;;5089559;28;20214;-66
2023/07/20 03:50:55;;;;;;;17.27;10.63;;;;;;;;;;5088492;28;20221;-66
2023/07/20 03:53:22;;;;;;;12.75;7.05;;;;;;;;;;5089467;28;20198;-66
2023/07/20 03:55:48;;;;;;;19.92;5.20;;;;;;;;;;5087892;28;20202;-65
2023/07/20 03:58:15;;;;;;;6.28;3.28;;;;;;;;;;5087982;28;20241;-66
2023/07/20 04:00:44;;;;;;;7.57;4.18;;;;;;;;;;5084915;28;20225;-66
2023/07/20 04:03:10;;;;;;;8.45;4.10;;;;;;;;;;5086235;28;20198;-65
2023/07/20 04:05:38;;;;;;;15.10;3.42;;;;;;;;;;5088968;28;20251;-66
2023/07/20 04:08:05;;;;;;;12.70;4.18;;;;;;;;;;5089502;28;20217;-66
2023/07/20 04:10:31;;;;;;;10.23;3.50;;;;;;;;;;5087711;28;20255;-66
2023/07/20 04:12:58;;;;;;;9.93;3.33;;;;;;;;;;5086431;28;20286;-65
2023/07/20 04:15:24;;;;;;;9.75;3.08;;;;;;;;;;5088742;28;20225;-67
2023/07/20 04:17:51;;;;;;;3.97;2.90;;;;;;;;;;5088974;28;20250;-66
2023/07/20 04:20:17;;;;;;;8.68;3.55;;;;;;;;;;5087803;28;20630;-66
2023/07/20 04:22:45;;;;;;;6.93;3.40;;;;;;;;;;5088715;28;20204;-65
2023/07/20 04:25:12;;;;;;;10.77;5.93;;;;;;;;;;5087410;28;20341;-65
2023/07/20 04:27:38;;;;;;;19.13;10.32;;;;;;;;;;5087932;28;20201;-66
2023/07/20 04:30:05;;;;;;;9.73;6.05;;;;;;;;;;5089576;28;20194;-66
2023/07/20 04:32:33;;;;;;;10.10;5.15;;;;;;;;;;5087618;28;20217;-66
2023/07/20 04:35:00;;;;;;;8.27;4.28;;;;;;;;;;5087343;28;20742;-66
2023/07/20 04:37:26;;;;;;;10.57;3.78;;;;;;;;;;5087691;28;20256;-66
2023/07/20 04:39:54;;;;;;;13.65;3.88;;;;;;;;;;5087376;28;20666;-66
2023/07/20 04:42:20;;;;;;;8.40;4.00;;;;;;;;;;5088846;28;20204;-66
2023/07/20 04:44:47;;;;;;;8.43;3.15;;;;;;;;;;5087598;28;20205;-67
2023/07/20 04:47:13;;;;;;;7.82;3.90;;;;;;;;;;5086386;28;20199;-66
2023/07/20 04:49:40;;;;;;;4.60;3.45;;;;;;;;;;5087685;28;20190;-66
2023/07/20 04:52:07;;;;;;;10.05;4.30;;;;;;;;;;5087440;28;20670;-67
2023/07/20 04:54:33;;;;;;;6.03;4.18;;;;;;;;;;5087724;28;20198;-66
2023/07/20 04:57:01;;;;;;;32.83;19.50;;;;;;;;;;5087585;28;20255;-66
2023/07/20 04:59:28;;;;;;;18.13;6.80;;;;;;;;;;5088182;28;20221;-65
2023/07/20 05:01:54;;;;;;;11.25;4.35;;;;;;;;;;5085275;28;20225;-66
2023/07/20 05:04:20;;;;;;;16.40;4.80;;;;;;;;;;5086235;28;20295;-66
2023/07/20 05:06:47;;;;;;;9.93;4.63;;;;;;;;;;5085936;28;20263;-64
2023/07/20 05:09:13;;;;;;;10.65;4.10;;;;;;;;;;5085608;28;20711;-66
2023/07/20 05:11:40;;;;;;;6.60;3.95;;;;;;;;;;5085221;28;20612;-66
2023/07/20 05:14:07;;;;;;;8.45;4.35;;;;;;;;;;5086593;28;20236;-66
2023/07/20 05:16:34;;;;;;;13.85;4.28;;;;;;;;;;5085984;28;20248;-66
2023/07/20 05:19:00;;;;;;;13.63;4.70;;;;;;;;;;5085893;28;20270;-65
2023/07/20 05:21:27;;;;;;;9.35;4.43;;;;;;;;;;5086418;28;20197;-66
2023/07/20 05:23:53;;;;;;;5.78;4.35;;;;;;;;;;5086089;28;20289;-66
2023/07/20 05:26:19;;;;;;;10.30;4.68;;;;;;;;;;5085576;28;20234;-66
2023/07/20 05:28:46;;;;;;;9.10;4.78;;;;;;;;;;5086364;28;20190;-66
2023/07/20 05:31:14;;;;;;;10.32;4.20;;;;;;;;;;5085249;28;20201;-65
2023/07/20 05:33:40;;;;;;;7.03;4.40;;;;;;;;;;5087379;28;20700;-66
2023/07/20 05:36:07;;;;;;;10.73;5.32;;;;;;;;;;5087316;28;20286;-65
2023/07/20 05:38:33;;;;;;;12.38;4.60;;;;;;;;;;5086711;28;20655;-67
2023/07/20 05:41:00;;;;;;;8.35;4.60;;;;;;;;;;5086285;28;20263;-65
2023/07/20 05:43:27;;;;;;;11.75;4.78;;;;;;;;;;5087158;28;20205;-66
2023/07/20 05:45:53;;;;;;;11.80;4.97;;;;;;;;;;5086869;28;20248;-65
2023/07/20 05:48:21;;;;;;;13.73;4.40;;;;;;;;;;5088099;28;20267;-66
2023/07/20 05:50:48;;;;;;;17.52;5.30;;;;;;;;;;5085660;28;20233;-66
2023/07/20 05:53:14;;;;;;;9.05;5.82;;;;;;;;;;5087941;28;20249;-65
2023/07/20 05:55:40;;;;;;;9.98;4.97;;;;;;;;;;5087650;28;20260;-66
2023/07/20 05:58:07;;;;;;;10.32;5.18;;;;;;;31.65;nan;94825.50;5087514;28;20206;-66
2023/07/20 06:00:34;;;;;;;13.07;5.15;;;;;;;;;;5086791;28;20252;-66
2023/07/20 06:03:00;;;;;;;10.73;5.32;;;;;;;;;;5087104;28;20194;-68
2023/07/20 06:05:28;;;;;;;16.48;4.65;;;;;;;;;;5086000;28;20276;-66
2023/07/20 06:07:55;;;;;;;10.02;4.78;;;;;;;;;;5086649;28;20226;-65
2023/07/20 06:10:21;;;;;;;14.25;5.22;;;;;;;;;;5087497;28;20581;-66
2023/07/20 06:12:48;;;;;;;13.75;4.75;;;;;;;;;;5085884;28;20234;-66
2023/07/20 06:15:29;;;;;;;10.50;6.57;;;;;;;;;;5086575;28;20251;-67
2023/07/20 06:17:57;;;;;;;17.75;5.63;;;;;;;;;;5088334;28;20205;-67
2023/07/20 06:20:24;;;;;;;14.73;4.43;;;;;;;;;;5089680;28;20318;-67
2023/07/20 06:22:52;;;;;;;10.40;5.03;;;;;;;;;;5090509;28;20204;-68
2023/07/20 06:25:18;;;;;;;11.60;4.72;;;;;;;;;;5089911;28;20208;-68
2023/07/20 06:27:45;;;;;;;9.80;4.43;;;;;;;;;;5091067;28;20675;-67
2023/07/20 06:30:11;;;;;;;17.92;5.70;;;;;;;;;;5090063;28;20278;-67
2023/07/20 06:32:38;;;;;;;10.98;4.78;;;;;;;;;;5088507;28;20202;-68
2023/07/20 06:35:05;;;;;;;5.05;4.10;;;;;;;;;;5089305;28;20884;-68
2023/07/20 06:37:32;;;;;;;10.55;4.47;;;;;;;;;;5090413;28;20201;-68
2023/07/20 06:40:00;;;;;;;6.80;4.43;;;;;;;;;;5090257;28;20251;-68
2023/07/20 06:42:27;;;;;;;6.85;4.30;;;;;;;;;;5090311;28;20205;-67
2023/07/20 06:44:53;;;;;;;11.95;5.30;;;;;;;;;;5090658;28;20702;-68
2023/07/20 06:47:19;;;;;;;14.43;5.18;;;;;;;;;;5089486;28;20634;-67
2023/07/20 06:49:46;;;;;;;14.20;5.38;;;;;;;;;;5090167;28;20197;-68
2023/07/20 06:52:12;;;;;;;9.18;5.10;;;;;;;;;;5090267;28;20253;-67
2023/07/20 06:54:39;;;;;;;8.15;3.95;;;;;;;;;;5089638;28;20659;-67
2023/07/20 06:57:07;;;;;;;10.35;4.38;;;;;;;;;;5090339;28;20655;-68
2023/07/20 06:59:34;;;;;;;10.30;4.60;;;;;;;50.79;nan;94764.88;5089245;28;20309;-68
2023/07/20 07:02:00;;;;;;;16.08;4.80;;;;;;;;;;5088661;28;20262;-68
2023/07/20 07:04:27;;;;;;;5.68;4.43;;;;;;;50.91;nan;94765.09;5088032;28;20678;-67
2023/07/20 07:06:54;;;;;;;9.35;5.50;;;;;;;;;;5087435;28;20262;-68
2023/07/20 07:09:21;;;;;;;7.47;4.97;;;;;;;;;;5087496;28;20197;-68
2023/07/20 07:11:47;;;;;;;7.35;4.78;;;;;;;;;;5088344;28;20212;-67
2023/07/20 07:14:15;;;;;;;14.52;5.05;;;;;;;;;;5088232;28;20296;-67
2023/07/20 07:16:41;;;;;;;9.63;5.40;;;;;;;;;;5088130;28;20205;-67
2023/07/20 07:19:08;;;;;;;17.92;5.80;;;;;;;;;;5088914;28;20264;-67
2023/07/20 07:21:34;;;;;;;9.02;4.35;;;;;;;;;;5087228;28;20194;-67
2023/07/20 07:24:01;;;;;;;10.05;3.78;;;;;;;;;;5088963;28;20225;-67
2023/07/20 07:26:27;;;;;;;8.05;4.20;;;;;;;;;;5088125;28;20267;-68
2023/07/20 07:28:54;;;;;;;7.80;4.75;;;;;;;;;;5087450;28;20197;-67
2023/07/20 07:31:23;;;;;;;11.05;3.92;;;;;;;;;;5088273;28;20205;-67
2023/07/20 07:33:49;;;;;;;8.65;4.50;;;;;;;;;;5088504;28;20206;-67
2023/07/20 07:36:16;;;;;;;12.77;4.28;;;;;;;;;;5089680;28;20337;-68
2023/07/20 07:38:42;;;;;;;11.93;5.22;;;;;;;50.46;nan;94791.44;5088779;28;20228;-67
2023/07/20 07:41:09;;;;;;;10.57;4.10;;;;;;;50.86;nan;94795.81;5088317;28;20220;-68
2023/07/20 07:43:36;;;;;;;5.65;4.25;;;;;;;51.07;nan;94795.28;5089886;28;20232;-68
2023/07/20 07:46:03;;;;;;;11.45;4.75;;;;;;;50.98;nan;94793.31;5088892;28;20212;-68
2023/07/20 07:48:31;;;;;;;10.40;4.53;;;;;;;51.46;nan;94776.31;5089428;28;20312;-68
2023/07/20 07:50:58;;;;;;;6.90;4.32;;;;;;;;;;5087268;28;20201;-67
2023/07/20 07:53:26;;;;;;;6.55;4.45;;;;;;;52.22;nan;94760.41;5088949;28;20700;-67
2023/07/20 07:55:52;;;;;;;14.68;4.43;;;;;;;;;;5088445;28;20629;-67
2023/07/20 07:58:19;;;;;;;9.35;3.95;;;;;;;;;;5089738;28;20266;-69
2023/07/20 08:00:45;;;;;;;6.28;4.30;;;;;;;;;;5089112;28;20225;-67
2023/07/20 08:03:11;;;;;;;11.60;4.10;;;;;;;;;;5088823;28;20293;-68
2023/07/20 08:05:39;;;;;;;12.20;4.50;;;;;;;;;;5088852;28;20262;-69
2023/07/20 08:08:06;;;;;;;6.05;4.15;;;;;;;;;;5088046;28;20276;-67
2023/07/20 08:10:32;;;;;;;10.73;5.85;;;;;;;;;;5087993;28;20249;-69
2023/07/20 08:12:59;;;;;;;6.75;4.30;;;;;;;;;;5088642;28;20201;-69
2023/07/20 08:15:25;;;;;;;13.60;4.82;;;;;;;;;;5088498;28;20216;-69
2023/07/20 08:17:52;;;;;;;14.10;4.75;;;;;;;;;;5088460;28;20209;-68
2023/07/20 08:20:19;;;;;;;20.88;4.18;;;;;;;;;;5087520;28;20224;-69
2023/07/20 08:22:46;;;;;;;10.23;3.55;;;;;;;;;;5088576;28;20205;-69
2023/07/20 08:25:13;;;;;;;11.20;3.00;;;;;;;;;;5088043;28;20231;-69
2023/07/20 08:27:40;;;;;;;10.75;3.42;;;;;;;;;;5088962;28;20209;-68
2023/07/20 08:30:08;;;;;;;7.85;3.20;;;;;;;;;;5088317;28;20202;-69
2023/07/20 08:32:34;;;;;;;9.75;3.33;;;;;;;;;;5087774;28;20278;-69
2023/07/20 08:35:01;;;;;;;7.97;3.85;;;;;;;;;;5088174;28;20225;-69
2023/07/20 08:37:27;;;;;;;11.25;3.58;;;;;;;;;;5087937;28;20212;-69
2023/07/20 08:39:55;;;;;;;9.68;4.07;;;;;;;;;;5087360;28;20261;-69
2023/07/20 08:42:21;;;;;;;10.05;3.33;;;;;;;;;;5087187;28;20681;-69
2023/07/20 08:44:48;;;;;;;12.35;3.50;;;;;;;;;;5087850;28;20197;-68
2023/07/20 08:47:16;;;;;;;7.50;3.30;;;;;;;;;;5088481;28;20226;-70
2023/07/20 08:49:43;;;;;;;4.30;3.30;;;;;;;;;;5088133;28;20212;-68
2023/07/20 08:52:09;;;;;;;6.55;3.50;;;;;;;;;;5087930;28;20346;-70
2023/07/20 08:54:36;;;;;;;9.52;3.33;;;;;;;;;;5087252;28;20205;-67
2023/07/20 08:57:06;;;;;;;8.27;3.03;;;;;;;46.93;nan;94774.63;5086913;28;20194;-67
2023/07/20 08:59:33;;;;;;;6.45;2.65;;;;;;;;;;5087441;28;20699;-68
2023/07/20 09:01:59;;;;;;;9.23;3.75;;;;;;;;;;5084927;28;20284;-68
2023/07/20 09:04:26;;;;;;;14.57;3.55;;;;;;;;;;5086349;28;20201;-68
2023/07/20 09:06:52;;;;;;;5.78;3.00;;;;;;;;;;5084642;28;20237;-69
2023/07/20 09:09:19;;;;;;;9.05;3.83;;;;;;;;;;5085099;28;20258;-68
2023/07/20 09:11:47;;;;;;;10.10;4.55;;;;;;;;;;5086048;28;20251;-68
2023/07/20 09:14:15;;;;;;;11.77;3.25;;;;;;;;;;5086608;28;20654;-68
2023/07/20 09:16:48;;;;;;;8.00;3.47;;;;;;;;;;5086098;28;20913;-68
2023/07/20 09:19:15;;;;;;;8.43;3.45;;;;;;;;;;5086918;28;20208;-67
2023/07/20 09:21:42;;;;;;;9.90;3.28;;;;;;;;;;5087665;28;20229;-69
2023/07/20 09:24:08;;;;;;;5.82;3.22;;;;;;;;;;5087185;28;20244;-68
2023/07/20 09:26:41;;;;;;;9.85;3.55;;;;;;;;;;5087441;28;20244;-67
2023/07/20 09:29:08;;;;;;;6.75;2.95;;;;;;;;;;5088289;28;20240;-68
2023/07/20 09:31:36;;;;;;;9.85;3.50;;;;;;;;;;5087427;28;20232;-69
2023/07/20 09:34:03;;;;;;;12.35;3.05;;;;;;;;;;5087357;28;20221;-67
2023/07/20 09:36:31;;;;;;;7.80;3.35;;;;;;;;;;5087279;28;20221;-68
2023/07/20 09:38:59;;;;;;;7.18;2.67;;;;;;;;;;5087777;28;20730;-68
2023/07/20 09:41:26;;;;;;;6.15;3.00;;;;;;;;;;5086769;28;20240;-69
2023/07/20 09:43:53;;;;;;;7.80;3.38;;;;;;;;;;5087145;28;20295;-67
2023/07/20 09:46:20;;;;;;;9.48;3.30;;;;;;;;;;5086971;28;20237;-69
2023/07/20 09:48:54;;;;;;;6.47;2.83;;;;;;;;;;5087326;28;20194;-67
2023/07/20 09:51:22;;;;;;;7.35;2.90;;;;;;;;;;5089237;28;20220;-68
2023/07/20 09:53:49;;;;;;;6.90;2.72;;;;;;;;;;5091115;28;20244;-69
2023/07/20 09:56:17;;;;;;;6.25;2.90;;;;;;;;;;5090145;28;20236;-67
2023/07/20 09:58:44;;;;;;;4.13;2.75;;;;;;;;;;5092055;28;20244;-69
2023/07/20 10:01:11;;;;;;;8.55;2.90;;;;;;;;;;5090343;28;20226;-68
2023/07/20 10:03:38;;;;;;;4.97;3.20;;;;;;;;;;5091356;28;20228;-69
2023/07/20 10:06:08;;;;;;;10.75;2.63;;;;;;;;;;5090096;28;20210;-67
2023/07/20 10:08:35;;;;;;;5.05;3.20;;;;;;;;;;5089193;28;20777;-68
2023/07/20 10:11:03;;;;;;;5.80;2.72;;;;;;;;;;5091518;28;20329;-68
2023/07/20 10:13:30;;;;;;;4.80;2.50;;;;;;;;;;5089392;28;20609;-69
2023/07/20 10:16:02;;;;;;;7.85;3.38;;;;;;;32.96;nan;94754.75;5091181;28;20201;-70
2023/07/20 10:18:31;;;;;;;2.75;2.53;;;;;;;;;;5090467;28;20237;-68
2023/07/20 10:20:58;;;;;;;5.65;2.78;;;;;;;;;;5089743;28;20248;-69
2023/07/20 10:23:27;;;;;;;11.80;3.30;;;;;;;;;;5090398;28;20960;-69
2023/07/20 10:25:54;;;;;;;5.30;2.90;;;;;;;;;;5090762;28;20221;-69
2023/07/20 10:28:23;;;;;;;7.43;3.08;;;;;;;;;;5090044;28;20237;-67
2023/07/20 10:30:49;;;;;;;5.30;3.15;;;;;;;;;;5090374;28;20197;-68
2023/07/20 10:33:17;;;;;;;4.85;2.05;;;;;;;;;;5089884;28;20221;-72
2023/07/20 10:35:53;;;;;;;5.65;2.63;;;;;;;;;;5090104;28;20251;-70
2023/07/20 10:38:19;;;;;;;3.25;2.63;;;;;;;;;;5090478;28;20233;-72
2023/07/20 10:40:56;;;;;;;4.47;2.85;;;;;;;;;;5090009;28;20284;-66
2023/07/20 10:43:22;;;;;;;14.02;4.43;;;;;;;;;;5090470;28;20225;-67
2023/07/20 10:45:50;;;;;;;7.53;3.13;;;;;;;;;;5089317;28;20271;-68
2023/07/20 10:48:17;;;;;;;7.45;2.70;;;;;;;;;;5090546;28;20224;-70
2023/07/20 10:50:44;;;;;;;10.15;5.00;;;;;;;;;;5088728;28;20645;-68
2023/07/20 10:53:17;;;;;;;43.75;28.02;;;;;;;;;;5089633;28;20678;-69
2023/07/20 10:55:46;;;;;;;27.45;21.33;;;;;;;;;;5089446;28;20585;-69
2023/07/20 10:58:15;;;;;;;21.65;15.68;;;;;;;;;;5089024;28;20202;-68
2023/07/20 11:01:01;;;;;;;18.52;11.60;;;;;;;;;;5088232;28;20236;-69
2023/07/20 11:03:28;;;;;;;11.95;10.70;;;;;;;;;;5088280;28;20197;-69
2023/07/20 11:05:54;;;;;;;9.38;5.07;;;;;;;;;;5090216;28;20204;-69
2023/07/20 11:08:39;;;;;;;7.50;3.75;;;;;;;;;;5090127;28;20233;-68
2023/07/20 11:11:25;;;;;;;5.65;4.03;;;;;;;;;;5089390;28;20258;-68
2023/07/20 11:13:56;;;;;;;4.97;3.38;;;;;;;;;;5089617;28;20202;-69
2023/07/20 11:16:32;;;;;;;7.72;3.40;;;;;;;;;;5090610;28;20212;-69
2023/07/20 11:18:59;;;;;;;9.55;3.33;;;;;;;;;;5089546;28;20705;-69
2023/07/20 11:21:26;;;;;;;6.30;3.25;;;;;;;;;;5090167;28;20218;-68
2023/07/20 11:23:52;;;;;;;6.40;2.78;;;;;;;;;;5089904;28;20259;-70
2023/07/20 11:26:20;;;;;;;4.22;2.83;;;;;;;;;;5090365;28;20233;-67
2023/07/20 11:28:49;;;;;;;4.85;3.28;;;;;;;;;;5090152;28;20205;-69
2023/07/20 11:31:17;;;;;;;4.28;3.00;;;;;;;;;;5088591;28;20229;-69
2023/07/20 11:33:43;;;;;;;4.70;2.83;;;;;;;;;;5088537;28;20225;-71
2023/07/20 11:36:10;;;;;;;5.47;3.05;;;;;;;;;;5089418;28;20289;-70
2023/07/20 11:38:36;;;;;;;3.92;2.90;;;;;;;;;;5089121;28;20226;-70
2023/07/20 11:41:03;;;;;;;5.97;3.85;;;;;;;;;;5089289;28;20252;-69
2023/07/20 11:43:30;;;;;;;4.53;3.42;;;;;;;;;;5087914;28;20240;-69
2023/07/20 11:45:57;;;;;;;7.40;4.07;;;;;;;;;;5088995;28;20240;-68
2023/07/20 11:48:25;;;;;;;6.85;3.70;;;;;;;;;;5088830;28;20237;-69
2023/07/20 11:50:51;;;;;;;9.20;4.75;;;;;;;;;;5088579;28;20221;-68
2023/07/20 11:53:18;;;;;;;6.78;4.13;;;;;;;;;;5089519;28;20308;-68
2023/07/20 11:55:44;;;;;;;6.93;4.20;;;;;;;;;;5088172;28;20207;-70
2023/07/20 11:58:11;;;;;;;6.63;3.47;;;;;;;;;;5089263;28;20596;-68
2023/07/20 12:00:39;;;;;;;8.60;3.65;;;;;;;;;;5088622;28;20710;-69
2023/07/20 12:03:07;;;;;;;7.07;3.58;;;;;;;;;;5088769;28;20678;-69
2023/07/20 12:05:35;;;;;;;5.70;3.78;;;;;;;;;;5088749;28;20702;-70
2023/07/20 12:08:01;;;;;;;11.55;3.60;;;;;;;;;;5088078;28;20194;-69
2023/07/20 12:10:29;;;;;;;6.10;3.15;;;;;;;;;;5088709;28;20229;-69
2023/07/20 12:13:01;;;;;;;12.50;3.15;;;;;;;;;;5088297;28;20248;-70
2023/07/20 12:15:29;;;;;;;6.50;3.00;;;;;;;;;;5087962;28;20233;-72
2023/07/20 12:17:56;;;;;;;8.23;3.45;;;;;;;;;;5088157;28;20197;-70
2023/07/20 12:20:26;;;;;;;7.55;3.10;;;;;;;;;;5088050;28;20289;-70
2023/07/20 12:22:57;;;;;;;6.40;3.10;;;;;;;;;;5088226;28;20229;-72
2023/07/20 12:25:23;;;;;;;9.75;3.35;;;;;;;;;;5088406;28;20233;-70
2023/07/20 12:27:50;;;;;;;7.60;3.10;;;;;;;;;;5088627;28;20255;-72
2023/07/20 12:30:16;;;;;;;9.38;3.63;;;;;;;;;;5088732;28;20282;-71
2023/07/20 12:32:43;;;;;;;6.82;3.92;;;;;;;;;;5087819;28;20247;-70
2023/07/20 12:35:11;;;;;;;5.57;3.05;;;;;;;;;;5086928;28;20209;-69
2023/07/20 12:37:37;;;;;;;6.45;3.22;;;;;;;;;;5087562;28;20204;-71
2023/07/20 12:40:10;;;;;;;5.97;2.83;;;;;;;;;;5086883;28;20253;-72
2023/07/20 12:42:39;;;;;;;6.82;3.75;;;;;;;;;;5087549;28;21253;-68
2023/07/20 12:45:06;;;;;;;5.85;2.60;;;;;;;;;;5087876;28;20667;-70
2023/07/20 12:47:32;;;;;;;7.32;3.83;;;;;;;;;;5088174;28;20272;-70
2023/07/20 12:49:58;;;;;;;6.03;2.70;;;;;;;;;;5088194;28;20197;-69
2023/07/20 12:52:25;;;;;;;7.82;3.03;;;;;;;;;;5087927;28;22003;-70
2023/07/20 12:54:52;;;;;;;3.47;2.67;;;;;;;;;;5087982;28;20252;-69
2023/07/20 12:57:20;;;;;;;6.10;3.22;;;;;;;;;;5088056;28;20643;-69
2023/07/20 12:59:46;;;;;;;3.05;2.67;;;;;;;;;;5086916;28;20657;-71
2023/07/20 13:02:13;;;;;;;7.40;2.85;;;;;;;;;;5085505;28;20228;-71
2023/07/20 13:04:39;;;;;;;7.32;3.58;;;;;;;;;;5086242;28;20247;-70
2023/07/20 13:07:06;;;;;;;5.93;3.22;;;;;;;;;;5086899;28;20225;-70
2023/07/20 13:09:32;;;;;;;11.95;4.15;;;;;;;;;;5086533;28;20318;-70
2023/07/20 13:12:01;;;;;;;10.55;3.47;;;;;;;;;;5086854;28;20233;-72
2023/07/20 13:14:29;;;;;;;3.53;2.85;;;;;;;;;;5086060;28;20292;-72
2023/07/20 13:16:56;;;;;;;5.55;2.92;;;;;;;;;;5085288;28;20690;-72
2023/07/20 13:19:22;;;;;;;7.43;2.72;;;;;;;;;;5086954;28;20237;-71
2023/07/20 13:21:49;;;;;;;3.58;2.65;;;;;;;;;;5087757;28;20248;-71
2023/07/20 13:24:17;;;;;;;9.40;3.10;;;;;;;;;;5087564;28;20198;-70
2023/07/20 13:26:43;;;;;;;5.32;3.08;;;;;;;;;;5091327;28;20201;-70
2023/07/20 13:29:09;;;;;;;8.07;2.92;;;;;;;;;;5091916;28;20292;-71
2023/07/20 13:31:37;;;;;;;9.40;2.97;;;;;;;;;;5092133;28;20657;-72
2023/07/20 13:34:05;;;;;;;16.13;2.55;;;;;;;;;;5091106;28;20198;-70
2023/07/20 13:36:32;;;;;;;7.93;2.72;;;;;;;;;;5091975;28;20280;-69
2023/07/20 13:38:59;;;;;;;9.25;3.10;;;;;;;;;;5090967;28;20257;-70
2023/07/20 13:41:25;;;;;;;6.30;2.97;;;;;;;;;;5092008;28;20253;-70
2023/07/20 13:43:52;;;;;;;13.43;3.92;;;;;;;;;;5090995;28;20681;-71
2023/07/20 13:46:18;;;;;;;8.23;3.40;;;;;;;;;;5090882;28;20208;-70
2023/07/20 13:48:46;;;;;;;8.77;3.65;;;;;;;;;;5091513;28;20675;-69
2023/07/20 13:51:12;;;;;;;9.82;2.83;;;;;;;;;;5090942;28;20352;-69
2023/07/20 13:53:39;;;;;;;5.82;2.80;;;;;;;;;;5091467;28;20241;-71
2023/07/20 13:56:05;;;;;;;8.77;3.25;;;;;;;;;;5091240;28;20227;-71
2023/07/20 13:58:32;;;;;;;5.07;2.50;;;;;;;;;;5091558;28;20198;-70
2023/07/20 14:00:58;;;;;;;13.77;3.35;;;;;;;;;;5090944;28;20755;-69
2023/07/20 14:03:25;;;;;;;11.57;2.63;;;;;;;;;;5091346;28;20286;-70
2023/07/20 14:05:53;;;;;;;7.50;3.05;;;;;;;;;;5091865;28;20210;-70
2023/07/20 14:08:19;;;;;;;11.45;2.92;;;;;;;;;;5091723;28;20229;-70
2023/07/20 14:10:45;;;;;;;9.00;3.25;;;;;;;;;;5091512;28;20236;-71
2023/07/20 14:13:12;;;;;;;6.70;3.15;;;;;;;;;;5090634;28;20578;-69
2023/07/20 14:15:39;;;;;;;7.35;2.90;;;;;;;;;;5091165;28;20292;-71
2023/07/20 14:18:06;;;;;;;10.75;3.22;;;;;;;;;;5091374;28;20241;-70
2023/07/20 14:20:32;;;;;;;13.63;3.45;;;;;;;;;;5091365;28;20221;-70
2023/07/20 14:23:00;;;;;;;11.77;3.30;;;;;;;;;;5090543;28;20260;-70
2023/07/20 14:25:26;;;;;;;9.32;3.75;;;;;;;;;;5090556;28;20233;-71
2023/07/20 14:27:53;;;;;;;12.85;3.22;;;;;;;;;;5090550;28;20237;-71
2023/07/20 14:30:19;;;;;;;4.57;2.50;;;;;;;;;;5090704;28;20281;-70
2023/07/20 14:32:46;;;;;;;6.70;2.95;;;;;;;;;;5090587;28;20229;-70